Aérodrome :
LOGIN :

S'inscrire | Disclaimer

   EN    FR    IT 

 










Légende :    VFR   VFR Marginal   IFR   IFR Intensif   IFR Très Intensif
Visi : 
Plafond : 
>= 8 km
>= 3000ft
5 à 8 km
1000 à 3000 ft
1500m à 5 km
500 à 1000 ft
800 à 1500m
200 à 500 ft
< 800m
< 200 ft
Symboles :   Orages  Brouillard  Fortes neiges  Fortes précipitations  Vent > 20 kt
SIGMETs :   Divers  Orages  Givrage  Turbulence  Onde Orograph.  Cendres Volcan.






- Altitude de l'aérodrome : 622 ft
- Code IATA : BRS


EGGD - Bristol Int.

DERNIER METAR :
  • 172050Z AUTO 26012KT 9999 NCD 04/02 Q1016

METARs EXPIRÉS :
  • 172020Z AUTO 26012KT 9999 FEW013 BKN018 05/03 Q1016
  • 171950Z AUTO 25009KT 9999 -RA FEW015 SCT021 BKN026 05/03 Q1016
  • 171920Z AUTO 25011KT 9999 FEW034 04/03 Q1015
  • 171850Z AUTO 24012KT 9999 //////TCU 04/03 Q1015
  • 171820Z AUTO 26024G35KT 8000 -RA SCT011/// SCT016/// BKN026/// //////TCU 04/03 Q1014
  • 171750Z 25014KT 9999 4500SE -SHRA SCT013 BKN021 05/04 Q1013 RERA

TAF TAF EGGD
Valide du 17 à 18h jusqu'au 18 à 18h UTC


171706Z 1718/1818 25014KT 9999 SCT020
TEMPO 1718/1722 26015G30KT
PROB30
TEMPO 1718/1802 6000 SHRA BKN014
TEMPO 1802/1818 6000 SHRA BKN010
PROB40
TEMPO 1807/1815 24017G27KT
PROB30
TEMPO 1808/1818 4000 +SHRAGS BKN007
TEMPO 1815/1818 25018G28KT
PROB30
TEMPO 1815/1818 26022G38KT
ATIS : +44 1275 473 666



MET'MAP, la Météo Aéronautique d'un coup d'oeil ! - Copyright ORBIFLY Décembre 2007 - Disclaimer

ORBIFLY MET'MAP TEAM :

Programmation & Développement : Alexandra Zaïnal
Sur une idée originale de : Baudouin d'Aumeries
Assistance à la programmation : Marc-Olivier Méhu
Soutien technique & logistique : Manuel Goepfert

Contact : metmap@orbifly.com




SOURCES & CREDITS :

   NOAA